Time;durP1;ratioP1;P1;durP2;ratioP2;P2;SDS_P1;SDS_P2;PMS_P1;PMS_P2;Temp;Humidity;BMP_temperature;BMP_pressure;BME280_temperature;BME280_humidity;BME280_pressure;Samples;Min_cycle;Max_cycle;Signal;HPM_P1;HPM_P2
2021/09/29 00:00:34;;;;;;;2.90;1.50;;;22.80;55.80;;;;;;5132875;27;20071;-60
2021/09/29 00:03:00;;;;;;;4.00;1.88;;;22.80;55.70;;;;;;5133583;27;20376;-61
2021/09/29 00:05:26;;;;;;;2.42;1.73;;;22.80;56.10;;;;;;5132452;27;20023;-60
2021/09/29 00:07:51;;;;;;;2.03;1.58;;;22.80;55.90;;;;;;5131877;27;20034;-61
2021/09/29 00:10:17;;;;;;;1.88;1.40;;;22.80;55.80;;;;;;5114339;27;20027;-61
2021/09/29 00:12:43;;;;;;;2.15;1.75;;;22.80;55.80;;;;;;5131563;27;20104;-61
2021/09/29 00:15:13;;;;;;;2.67;1.67;;;22.80;55.80;;;;;;5114959;27;20114;-61
2021/09/29 00:17:43;;;;;;;2.38;1.65;;;22.80;55.90;;;;;;5131882;27;20043;-60
2021/09/29 00:20:11;;;;;;;4.40;2.28;;;22.80;56.00;;;;;;5132529;27;20050;-61
2021/09/29 00:22:37;;;;;;;2.25;1.30;;;22.80;55.90;;;;;;5131699;27;20065;-60
2021/09/29 00:25:05;;;;;;;4.85;1.98;;;22.80;56.00;;;;;;5132095;28;20077;-60
2021/09/29 00:27:31;;;;;;;2.65;1.75;;;22.80;55.90;;;;;;5131605;28;20049;-61
2021/09/29 00:30:00;;;;;;;2.50;1.52;;;22.80;56.00;;;;;;5132298;28;20515;-61
2021/09/29 00:32:26;;;;;;;3.78;1.88;;;22.80;55.90;;;;;;5131543;28;20027;-60
2021/09/29 00:34:52;;;;;;;2.03;1.58;;;22.80;55.90;;;;;;5132893;28;20027;-61
2021/09/29 00:37:17;;;;;;;2.58;1.77;;;22.80;56.00;;;;;;5132989;27;20414;-61
2021/09/29 00:39:44;;;;;;;3.83;1.63;;;22.80;56.70;;;;;;5136277;27;20034;-60
2021/09/29 00:42:10;;;;;;;1.77;1.48;;;22.80;56.10;;;;;;5136829;27;20032;-60
2021/09/29 00:44:35;;;;;;;3.10;1.45;;;22.80;56.10;;;;;;5136484;27;20034;-60
2021/09/29 00:47:02;;;;;;;2.63;1.52;;;22.80;56.00;;;;;;5136638;27;20047;-60
2021/09/29 00:49:27;;;;;;;2.45;1.48;;;22.80;56.00;;;;;;5117222;27;20027;-60
2021/09/29 00:51:55;;;;;;;2.10;1.70;;;22.80;56.00;;;;;;5136355;27;20368;-60
2021/09/29 00:54:29;;;;;;;3.42;1.67;;;22.80;56.10;;;;;;5136245;27;20505;-60
2021/09/29 00:56:56;;;;;;;2.22;1.60;;;22.80;56.10;;;;;;5136416;27;20019;-61
2021/09/29 00:59:22;;;;;;;2.50;1.85;;;22.80;56.10;;;;;;5117531;27;20027;-60
2021/09/29 01:01:48;;;;;;;2.75;1.80;;;22.80;56.20;;;;;;5136105;27;20096;-61
2021/09/29 01:04:15;;;;;;;2.50;1.80;;;22.80;56.20;;;;;;5136169;27;20031;-61
2021/09/29 01:06:53;;;;;;;2.97;1.60;;;22.80;56.10;;;;;;5135526;27;20114;-61
2021/09/29 01:09:34;;;;;;;2.33;1.65;;;22.80;56.20;;;;;;5136837;27;20061;-61
2021/09/29 01:12:21;;;;;;;2.97;1.60;;;22.80;56.20;;;;;;5135530;27;20023;-60
2021/09/29 01:15:08;;;;;;;2.35;1.60;;;22.80;56.20;;;;;;5135667;27;20042;-61
2021/09/29 01:17:44;;;;;;;3.90;1.58;;;22.70;56.20;;;;;;5135164;27;20073;-60
2021/09/29 01:20:44;;;;;;;3.08;1.60;;;22.80;56.20;;;;;;5136430;27;20079;-61
2021/09/29 01:23:27;;;;;;;2.05;1.60;;;22.80;56.10;;;;;;5136207;27;20036;-60
2021/09/29 01:25:58;;;;;;;2.17;1.65;;;22.80;56.30;;;;;;5134597;27;20026;-60
2021/09/29 01:28:48;;;;;;;4.50;2.08;;;22.80;56.20;;;;;;5134943;27;20442;-60
2021/09/29 01:31:16;;;;;;;2.42;1.58;;;22.70;56.10;;;;;;5135956;27;20384;-61
2021/09/29 01:33:43;;;;;;;3.20;1.90;;;22.80;56.20;;;;;;5134543;27;20083;-61
2021/09/29 01:36:10;;;;;;;2.95;1.80;;;22.70;56.10;;;;;;5135386;27;20027;-61
2021/09/29 01:38:38;;;;;;;1.92;1.45;;;22.80;56.20;;;;;;5134918;27;20030;-61
2021/09/29 01:41:05;;;;;;;2.08;1.60;;;22.70;56.10;;;;;;5136186;27;20126;-60
2021/09/29 01:43:32;;;;;;;2.35;1.67;;;22.80;56.20;;;;;;5134990;27;20058;-60
2021/09/29 01:45:59;;;;;;;2.47;1.75;;;22.80;56.20;;;;;;5135151;27;20035;-61
2021/09/29 01:48:26;;;;;;;1.88;1.33;;;22.70;56.20;;;;;;5114810;28;20088;-60
2021/09/29 01:50:56;;;;;;;4.05;1.98;;;22.70;56.20;;;;;;5134819;27;20023;-61
2021/09/29 01:53:33;;;;;;;2.20;1.52;;;22.80;56.30;;;;;;5135201;27;20056;-60
2021/09/29 01:55:59;;;;;;;1.60;1.48;;;22.70;56.20;;;;;;5135317;27;20023;-61
2021/09/29 01:58:31;;;;;;;3.45;2.20;;;22.70;56.20;;;;;;5135086;27;20488;-60
2021/09/29 02:00:57;;;;;;;1.83;1.50;;;22.70;56.20;;;;;;5135238;27;20047;-61
2021/09/29 02:03:29;;;;;;;2.58;1.38;;;22.70;56.30;;;;;;5135431;27;20042;-61
2021/09/29 02:05:56;;;;;;;2.80;1.77;;;22.70;56.20;;;;;;5135155;27;20031;-61
2021/09/29 02:08:21;;;;;;;2.33;1.48;;;22.70;56.20;;;;;;5116495;27;20420;-61
2021/09/29 02:10:47;;;;;;;3.55;2.03;;;22.70;56.20;;;;;;5134430;27;20050;-61
2021/09/29 02:13:13;;;;;;;3.45;1.67;;;22.70;56.20;;;;;;5134867;27;20028;-61
2021/09/29 02:15:39;;;;;;;2.92;1.92;;;22.70;56.20;;;;;;5134027;27;20102;-61
2021/09/29 02:18:04;;;;;;;5.40;1.60;;;22.70;56.30;;;;;;5134843;27;20035;-61
2021/09/29 02:20:30;;;;;;;3.00;1.50;;;22.70;56.20;;;;;;5133879;27;20058;-60
2021/09/29 02:22:55;;;;;;;2.90;1.73;;;22.70;56.30;;;;;;5134980;27;20037;-61
2021/09/29 02:25:22;;;;;;;2.10;1.60;;;22.70;56.30;;;;;;5134121;27;20464;-61
2021/09/29 02:27:48;;;;;;;2.10;1.75;;;22.70;56.90;;;;;;5133899;27;20038;-61
2021/09/29 02:30:14;;;;;;;4.97;1.70;;;22.70;56.20;;;;;;5134748;27;20016;-61
2021/09/29 02:32:40;;;;;;;2.72;1.95;;;22.70;56.30;;;;;;5133793;27;20027;-61
2021/09/29 02:35:08;;;;;;;2.60;2.15;;;22.70;56.30;;;;;;5134325;27;20490;-60
2021/09/29 02:37:35;;;;;;;2.65;1.60;;;22.70;56.30;;;;;;5133223;27;20035;-60
2021/09/29 02:40:00;;;;;;;2.95;1.60;;;22.70;56.30;;;;;;5133993;27;20027;-61
2021/09/29 02:42:27;;;;;;;2.67;1.70;;;22.70;56.30;;;;;;5115544;27;20532;-60
2021/09/29 02:44:53;;;;;;;2.60;1.90;;;22.70;56.30;;;;;;5116378;27;20370;-60
2021/09/29 02:47:18;;;;;;;3.15;1.30;;;22.70;56.30;;;;;;5133574;27;20039;-61
2021/09/29 02:49:44;;;;;;;4.60;1.65;;;22.70;56.30;;;;;;5133503;27;20033;-61
2021/09/29 02:52:10;;;;;;;3.42;1.85;;;22.70;56.30;;;;;;5133292;27;20045;-61
2021/09/29 02:54:36;;;;;;;2.83;1.77;;;22.70;56.30;;;;;;5133286;27;20068;-61
2021/09/29 02:57:01;;;;;;;1.95;1.27;;;22.70;56.90;;;;;;5133738;27;20019;-61
2021/09/29 02:59:27;;;;;;;4.13;1.67;;;22.70;56.30;;;;;;5133107;27;20035;-61
2021/09/29 03:01:53;;;;;;;1.80;1.40;;;22.70;56.30;;;;;;5133704;27;20123;-61
2021/09/29 03:04:19;;;;;;;2.55;1.67;;;22.70;56.30;;;;;;5133946;27;20375;-61
2021/09/29 03:06:44;;;;;;;8.10;2.10;;;22.70;56.30;;;;;;5133118;27;20110;-61
2021/09/29 03:09:10;;;;;;;2.38;1.70;;;22.70;56.30;;;;;;5133531;27;20031;-61
2021/09/29 03:11:36;;;;;;;2.95;1.67;;;22.70;56.30;;;;;;5133193;27;20391;-60
2021/09/29 03:14:02;;;;;;;2.20;1.40;;;22.70;56.50;;;;;;5133885;27;20032;-61
2021/09/29 03:16:28;;;;;;;2.40;1.42;;;22.70;56.30;;;;;;5133175;27;20046;-60
2021/09/29 03:18:55;;;;;;;1.60;1.42;;;22.70;56.30;;;;;;5133436;27;20031;-61
2021/09/29 03:21:21;;;;;;;2.55;1.42;;;22.70;56.30;;;;;;5133332;27;20589;-61
2021/09/29 03:23:47;;;;;;;1.98;1.30;;;22.70;56.30;;;;;;5133084;27;20022;-61
2021/09/29 03:26:13;;;;;;;2.20;1.33;;;22.70;56.30;;;;;;5133258;27;20019;-61
2021/09/29 03:28:39;;;;;;;2.83;1.60;;;22.70;56.30;;;;;;5132551;27;20043;-61
2021/09/29 03:31:04;;;;;;;2.65;1.35;;;22.70;56.30;;;;;;5133434;27;20027;-61
2021/09/29 03:33:30;;;;;;;1.58;1.45;;;22.70;56.30;;;;;;5132468;27;20063;-61
2021/09/29 03:35:56;;;;;;;3.03;1.38;;;22.70;56.20;;;;;;5133089;27;20023;-60
2021/09/29 03:38:22;;;;;;;3.95;1.70;;;22.70;56.30;;;;;;5133635;27;20520;-61
2021/09/29 03:40:48;;;;;;;2.63;1.45;;;22.70;56.30;;;;;;5132144;27;20034;-61
2021/09/29 03:43:13;;;;;;;1.92;1.45;;;22.70;56.30;;;;;;5133479;27;20031;-61
2021/09/29 03:45:39;;;;;;;2.45;1.60;;;22.70;56.30;;;;;;5132305;27;20052;-61
2021/09/29 03:48:05;;;;;;;2.95;1.95;;;22.70;56.30;;;;;;5132596;27;20039;-60
2021/09/29 03:50:30;;;;;;;2.13;1.50;;;22.60;56.20;;;;;;5132115;27;20055;-61
2021/09/29 03:52:56;;;;;;;3.28;1.52;;;22.70;56.30;;;;;;5132400;27;20107;-61
2021/09/29 03:55:22;;;;;;;2.95;1.40;;;22.70;56.30;;;;;;5133122;27;20031;-61
2021/09/29 03:57:49;;;;;;;1.88;1.48;;;22.70;56.30;;;;;;5131352;27;20624;-61
2021/09/29 04:00:15;;;;;;;3.90;1.63;;;22.70;56.20;;;;;;5132677;27;20092;-61
2021/09/29 04:02:41;;;;;;;2.20;1.35;;;22.70;56.20;;;;;;5131828;27;20027;-61
2021/09/29 04:05:08;;;;;;;2.75;1.48;;;22.70;56.20;;;;;;5132957;27;20042;-61
2021/09/29 04:07:34;;;;;;;1.25;1.02;;;22.70;56.30;;;;;;5131699;27;20039;-61
2021/09/29 04:10:00;;;;;;;3.80;1.50;;;22.70;56.30;;;;;;5132769;27;20131;-60
2021/09/29 04:12:26;;;;;;;1.83;1.50;;;22.70;56.30;;;;;;5131973;27;20023;-61
2021/09/29 04:14:52;;;;;;;1.83;1.58;;;22.70;56.30;;;;;;5132195;27;20031;-60
2021/09/29 04:17:19;;;;;;;2.92;1.60;;;22.70;56.30;;;;;;5132477;27;20114;-61
2021/09/29 04:19:45;;;;;;;1.77;1.55;;;22.70;56.30;;;;;;5130599;27;20345;-61
2021/09/29 04:22:11;;;;;;;3.85;1.58;;;22.60;56.20;;;;;;5131515;27;20023;-61
2021/09/29 04:24:39;;;;;;;1.60;1.20;;;22.60;56.20;;;;;;5130488;27;20022;-61
2021/09/29 04:27:07;;;;;;;2.53;1.27;;;22.60;56.20;;;;;;5130519;28;20031;-61
2021/09/29 04:29:32;;;;;;;1.83;1.25;;;22.60;56.20;;;;;;5130429;28;20453;-60
2021/09/29 04:31:58;;;;;;;2.45;1.60;;;22.60;56.20;;;;;;5131148;28;20034;-61
2021/09/29 04:34:24;;;;;;;2.55;1.52;;;22.70;56.30;;;;;;5130700;28;20034;-61
2021/09/29 04:36:50;;;;;;;1.80;1.30;;;22.70;56.20;;;;;;5129947;28;20024;-61
2021/09/29 04:39:17;;;;;;;3.13;1.30;;;22.70;56.30;;;;;;5131354;28;20128;-62
2021/09/29 04:41:43;;;;;;;2.85;1.30;;;22.60;56.20;;;;;;5130341;28;20106;-61
2021/09/29 04:44:09;;;;;;;1.75;1.40;;;22.60;56.30;;;;;;5131252;28;20038;-61
2021/09/29 04:46:35;;;;;;;2.20;1.25;;;22.60;56.30;;;;;;5128624;28;20027;-61
2021/09/29 04:49:01;;;;;;;1.98;1.33;;;22.60;56.30;;;;;;5130041;28;20472;-61
2021/09/29 04:51:33;;;;;;;2.67;1.30;;;22.60;56.30;;;;;;5127513;28;20028;-61
2021/09/29 04:54:00;;;;;;;3.25;1.48;;;22.60;56.30;;;;;;5130540;28;20486;-61
2021/09/29 04:56:26;;;;;;;2.72;1.52;;;22.60;56.30;;;;;;5130424;28;20026;-61
2021/09/29 04:58:52;;;;;;;3.75;1.10;;;22.60;56.40;;;;;;5129704;28;20031;-61
2021/09/29 05:01:23;;;;;;;1.40;1.20;;;22.60;56.30;;;;;;5129918;28;20055;-61
2021/09/29 05:03:49;;;;;;;1.88;1.48;;;22.60;56.30;;;;;;5130392;28;20027;-61
2021/09/29 05:06:15;;;;;;;2.47;1.30;;;22.60;56.30;;;;;;5113094;28;20422;-61
2021/09/29 05:08:45;;;;;;;1.30;0.93;;;22.60;56.40;;;;;;5131618;28;20076;-61
2021/09/29 05:11:49;;;;;;;2.85;1.27;;;22.60;56.30;;;;;;5130885;28;20058;-61
2021/09/29 05:14:16;;;;;;;1.67;1.20;;;22.60;56.40;;;;;;5110718;28;20369;-61
2021/09/29 05:16:42;;;;;;;2.05;1.35;;;22.60;56.40;;;;;;5121281;28;20083;-61
2021/09/29 05:19:08;;;;;;;2.85;1.25;;;22.60;56.40;;;;;;5132366;28;20462;-61
2021/09/29 05:21:35;;;;;;;1.95;1.13;;;22.60;56.50;;;;;;5112489;28;20023;-61
2021/09/29 05:24:05;;;;;;;2.13;1.33;;;22.60;56.40;;;;;;5133443;27;20027;-61
2021/09/29 05:26:32;;;;;;;1.90;1.13;;;22.60;56.40;;;;;;5125562;27;20099;-60
2021/09/29 05:29:01;;;;;;;3.00;1.50;;;22.60;56.50;;;;;;5131871;27;20039;-61
2021/09/29 05:31:26;;;;;;;2.85;1.13;;;22.60;56.40;;;;;;5135926;27;20106;-61
2021/09/29 05:33:52;;;;;;;2.33;1.10;;;22.60;56.40;;;;;;5134679;27;20519;-61
2021/09/29 05:36:18;;;;;;;1.67;1.13;;;22.60;56.40;;;;;;5135001;27;20032;-61
2021/09/29 05:38:44;;;;;;;3.75;1.40;;;22.60;56.70;;;;;;5134492;27;20031;-61
2021/09/29 05:41:11;;;;;;;3.75;1.58;;;22.60;57.00;;;;;;5135328;27;20554;-61
2021/09/29 05:43:38;;;;;;;8.10;1.45;;;22.40;53.60;;;;;;5134834;27;20067;-60
2021/09/29 05:46:03;;;;;;;2.83;1.00;;;22.50;54.20;;;;;;5135188;27;20030;-60
2021/09/29 05:48:35;;;;;;;3.72;1.40;;;22.60;54.70;;;;;;5134712;27;20031;-59
2021/09/29 05:51:01;;;;;;;;;;;22.70;56.30;;;;;;5135378;27;20076;-57
2021/09/29 05:53:27;;;;;;;5.90;2.30;;;22.70;57.50;;;;;;5135596;27;19903;-54
2021/09/29 05:55:53;;;;;;;6.95;1.52;;;22.80;58.20;;;;;;5132800;27;20015;-56
2021/09/29 05:58:19;;;;;;;6.20;1.30;;;22.80;58.10;;;;;;5116217;27;20413;-55
2021/09/29 06:00:45;;;;;;;7.47;1.67;;;22.80;58.30;;;;;;5133853;27;20043;-60
2021/09/29 06:03:11;;;;;;;5.40;2.03;;;22.80;58.80;;;;;;5134246;27;20055;-59
2021/09/29 06:05:36;;;;;;;5.07;1.23;;;22.80;58.10;;;;;;5133616;27;20035;-59
2021/09/29 06:08:02;;;;;;;10.25;2.22;;;22.80;58.40;;;;;;5127927;27;20058;-59
2021/09/29 06:10:28;;;;;;;4.28;1.30;;;22.80;58.30;;;;;;5136182;27;20031;-59
2021/09/29 06:12:54;;;;;;;3.15;1.30;;;22.80;58.40;;;;;;5135398;27;20039;-60
2021/09/29 06:15:22;;;;;;;6.25;1.60;;;22.80;58.50;;;;;;5134767;27;20027;-59
2021/09/29 06:17:58;;;;;;;7.85;1.77;;;22.80;58.60;;;;;;5133474;27;20079;-60
2021/09/29 06:20:26;;;;;;;3.47;1.40;;;22.80;58.90;;;;;;5116114;27;20412;-59
2021/09/29 06:22:52;;;;;;;5.40;1.90;;;22.80;59.20;;;;;;5133522;27;20639;-59
2021/09/29 06:25:21;;;;;;;5.65;1.55;;;22.80;58.90;;;;;;5134780;27;20031;-59
2021/09/29 06:27:47;;;;;;;4.13;1.25;;;22.80;58.80;;;;;;5133120;27;20505;-59
2021/09/29 06:30:13;;;;;;;5.47;1.25;;;22.90;58.90;;;;;;5133990;27;20111;-59
2021/09/29 06:32:39;;;;;;;3.55;1.30;;;22.90;58.90;;;;;;5133464;27;20023;-60
2021/09/29 06:35:05;;;;;;;10.25;1.75;;;22.90;59.00;;;;;;5133536;27;20030;-59
2021/09/29 06:37:38;;;;;;;6.90;1.50;;;22.90;58.90;;;;;;5133999;27;20031;-60
2021/09/29 06:40:08;;;;;;;4.78;1.27;;;22.90;58.80;;;;;;5134342;27;20125;-59
2021/09/29 06:42:42;;;;;;;4.13;1.30;;;22.90;58.70;;;;;;5133949;27;20113;-61
2021/09/29 06:45:10;;;;;;;4.00;1.08;;;22.90;58.80;;;;;;5134123;27;20027;-59
2021/09/29 06:47:45;;;;;;;3.30;1.35;;;22.90;58.50;;;;;;5133520;27;20035;-61
2021/09/29 06:50:13;;;;;;;4.53;1.45;;;22.90;58.60;;;;;;5120511;27;20021;-59
2021/09/29 06:52:39;;;;;;;4.80;1.30;;;22.90;58.50;;;;;;5112750;28;20119;-61
2021/09/29 06:55:06;;;;;;;5.20;1.10;;;22.90;58.50;;;;;;5122602;27;20024;-59
2021/09/29 06:57:32;;;;;;;2.67;1.23;;;22.90;58.50;;;;;;5122488;27;20036;-59
2021/09/29 06:59:57;;;;;;;4.53;1.85;;;22.90;58.50;;;;;;5120791;27;20039;-60
2021/09/29 07:02:23;;;;;;;2.63;1.27;;;22.90;58.30;;;;;;5134240;27;20102;-59
2021/09/29 07:04:49;;;;;;;2.28;1.20;;;22.90;58.30;;;;;;5132674;27;20023;-59
2021/09/29 07:07:15;;;;;;;3.10;1.30;;;22.90;58.30;;;;;;5129645;27;20035;-61
2021/09/29 07:09:41;;;;;;;2.85;1.13;;;22.90;58.20;;;;;;5132860;27;20054;-60
2021/09/29 07:12:08;;;;;;;2.65;1.38;;;22.90;58.80;;;;;;5133328;27;20059;-59
2021/09/29 07:14:33;;;;;;;4.22;1.10;;;22.90;58.20;;;;;;5133941;27;20031;-59
2021/09/29 07:17:00;;;;;;;2.80;1.23;;;22.90;58.10;;;;;;5132511;27;20796;-59
2021/09/29 07:19:27;;;;;;;5.10;1.33;;;22.90;58.10;;;;;;5133912;27;20035;-59
2021/09/29 07:21:53;;;;;;;4.45;1.92;;;22.90;58.00;;;;;;5132582;27;20813;-59
2021/09/29 07:24:20;;;;;;;3.53;1.08;;;22.90;58.00;;;;;;5133238;27;20023;-59
2021/09/29 07:26:46;;;;;;;3.55;1.25;;;22.90;58.00;;;;;;5132484;27;20136;-60
2021/09/29 07:29:11;;;;;;;1.27;1.02;;;22.90;57.90;;;;;;5133068;27;20155;-59
2021/09/29 07:31:44;;;;;;;1.80;1.02;;;22.90;57.90;;;;;;5133467;27;20524;-61
2021/09/29 07:34:11;;;;;;;2.03;1.27;;;22.90;57.90;;;;;;5123089;27;20020;-59
2021/09/29 07:36:39;;;;;;;2.60;1.00;;;22.90;57.80;;;;;;5120276;27;20494;-61
2021/09/29 07:39:06;;;;;;;1.95;1.10;;;22.90;57.80;;;;;;5132708;27;20023;-59
2021/09/29 07:41:32;;;;;;;2.08;1.00;;;22.90;57.80;;;;;;5133502;27;20035;-59
2021/09/29 07:43:58;;;;;;;2.03;1.05;;;22.90;57.90;;;;;;5132805;27;20035;-59
2021/09/29 07:46:24;;;;;;;1.73;0.90;;;22.90;57.80;;;;;;5132463;27;20058;-59
2021/09/29 07:48:50;;;;;;;2.10;1.20;;;22.90;57.70;;;;;;5131811;27;20031;-59
2021/09/29 07:51:16;;;;;;;2.58;1.15;;;22.90;57.70;;;;;;5133154;27;20502;-59
2021/09/29 07:53:42;;;;;;;2.55;1.20;;;22.90;57.70;;;;;;5132393;27;20037;-61
2021/09/29 07:56:08;;;;;;;4.43;0.90;;;22.90;57.60;;;;;;5132752;27;20035;-59
2021/09/29 07:58:34;;;;;;;1.90;0.90;;;22.90;57.60;;;;;;5133092;27;20030;-59
2021/09/29 08:01:00;;;;;;;1.48;1.13;;;22.80;57.60;;;;;;5132115;27;20047;-59
2021/09/29 08:03:27;;;;;;;4.03;1.00;;;22.90;57.60;;;;;;5132669;27;20035;-59
2021/09/29 08:05:55;;;;;;;1.45;0.80;;;22.90;57.80;;;;;;5132112;27;20026;-57
2021/09/29 08:08:21;;;;;;;1.83;0.85;;;22.90;57.70;;;;;;5132741;27;20047;-59
2021/09/29 08:10:46;;;;;;;2.22;1.15;;;22.90;57.50;;;;;;5131829;27;20032;-59
2021/09/29 08:13:12;;;;;;;1.45;1.00;;;22.90;57.50;;;;;;5114320;27;20035;-58
2021/09/29 08:15:38;;;;;;;2.35;0.90;;;22.90;57.50;;;;;;5132187;27;20456;-59
2021/09/29 08:18:03;;;;;;;2.75;0.82;;;22.90;57.70;;;;;;5132040;27;20046;-59
2021/09/29 08:20:34;;;;;;;2.47;1.02;;;22.90;58.10;;;;;;5132332;27;20019;-58
2021/09/29 08:23:24;;;;;;;3.33;0.90;;;22.90;57.90;;;;;;5113119;28;20138;-59
2021/09/29 08:31:08;;;;;;;2.47;1.00;;;22.90;57.80;;;;;;5131296;28;20023;-60
2021/09/29 08:36:08;;;;;;;1.70;0.90;;;22.90;57.80;;;;;;5131319;28;20164;-59
2021/09/29 08:38:40;;;;;;;2.42;0.80;;;22.80;57.80;;;;;;5132537;28;20058;-59
2021/09/29 08:46:23;;;;;;;1.98;0.82;;;22.80;57.70;;;;;;5131258;28;20766;-59
2021/09/29 09:18:19;;;;;;;3.22;0.90;;;22.80;57.50;;;;;;5135869;27;20062;-59
2021/09/29 09:20:50;;;;;;;3.85;1.00;;;22.80;57.50;;;;;;5116436;27;20384;-62
2021/09/29 09:23:16;;;;;;;1.80;0.95;;;22.80;57.40;;;;;;5135909;27;20027;-59
2021/09/29 09:25:47;;;;;;;3.55;1.45;;;22.80;57.30;;;;;;5135918;27;20035;-61
2021/09/29 09:28:28;;;;;;;1.83;0.75;;;22.80;57.40;;;;;;5135582;27;20027;-59
2021/09/29 09:30:58;;;;;;;0.93;0.70;;;22.80;57.30;;;;;;5134739;27;20039;-58
2021/09/29 09:33:26;;;;;;;2.58;0.90;;;22.80;57.40;;;;;;5135675;27;20072;-59
2021/09/29 09:35:52;;;;;;;1.80;0.60;;;22.80;57.30;;;;;;5135311;27;20050;-59
2021/09/29 09:38:22;;;;;;;2.38;0.98;;;22.80;57.30;;;;;;5135447;27;20023;-59
2021/09/29 09:40:57;;;;;;;1.13;0.70;;;22.80;57.30;;;;;;5134289;27;20038;-59
2021/09/29 09:43:30;;;;;;;1.20;0.63;;;22.80;57.30;;;;;;5117323;27;20030;-60
2021/09/29 09:45:58;;;;;;;1.52;0.80;;;22.80;57.30;;;;;;5114299;28;20028;-59
2021/09/29 09:48:26;;;;;;;1.20;0.77;;;22.80;57.30;;;;;;5114239;27;20035;-59
2021/09/29 09:51:05;;;;;;;1.85;0.80;;;22.80;57.30;;;;;;5123804;27;20023;-59
2021/09/29 09:53:32;;;;;;;1.42;0.80;;;22.80;57.30;;;;;;5135295;27;20024;-59
2021/09/29 09:55:58;;;;;;;1.27;0.80;;;22.80;57.30;;;;;;5134042;27;20399;-60
2021/09/29 09:58:24;;;;;;;1.95;0.63;;;22.80;57.30;;;;;;5134867;27;20035;-59
2021/09/29 10:00:58;;;;;;;2.03;0.90;;;22.80;57.40;;;;;;5134195;27;20047;-59
2021/09/29 10:03:28;;;;;;;2.55;0.90;;;22.80;57.30;;;;;;5135342;27;20027;-59
2021/09/29 10:05:54;;;;;;;2.08;0.60;;;22.80;57.30;;;;;;5134103;27;20048;-59
2021/09/29 10:08:26;;;;;;;2.50;0.60;;;22.80;57.20;;;;;;5134421;27;20498;-59
2021/09/29 10:11:14;;;;;;;2.47;0.50;;;22.70;57.20;;;;;;5132919;27;20019;-59
2021/09/29 10:27:52;;;;;;;1.83;0.70;;;22.80;57.30;;;;;;5116627;27;20402;-61
2021/09/29 10:30:29;;;;;;;1.98;0.70;;;22.70;57.30;;;;;;5114265;27;20039;-61
2021/09/29 10:33:01;;;;;;;2.58;1.52;;;22.80;57.30;;;;;;5130952;27;20025;-59
2021/09/29 10:46:57;;;;;;;2.97;1.02;;;22.80;56.90;;;;;;5113114;27;20051;-59
2021/09/29 11:30:49;;;;;;;3.33;1.75;;;22.90;57.90;;;;;;5109133;28;20068;-59
2021/09/29 11:33:39;;;;;;;3.13;1.15;;;22.90;58.20;;;;;;5112687;28;20569;-58
2021/09/29 11:37:16;;;;;;;3.17;1.20;;;22.90;58.80;;;;;;5121053;27;20041;-59
2021/09/29 11:39:21;;;;;;;4.13;1.35;;;22.90;58.90;;;;;;5110820;27;20043;-58
2021/09/29 12:09:08;;;;;;;3.38;0.90;;;22.80;56.60;;;;;;5008306;28;20048;-59
2021/09/29 12:11:47;;;;;;;2.00;0.80;;;22.80;57.10;;;;;;5007020;28;20030;-59
2021/09/29 12:14:17;;;;;;;1.40;0.63;;;22.80;55.90;;;;;;5011849;28;20472;-63
2021/09/29 12:16:43;;;;;;;2.28;0.70;;;22.80;56.20;;;;;;5012236;28;20060;-58
2021/09/29 12:19:24;;;;;;;4.43;0.60;;;22.80;55.90;;;;;;5012407;28;20034;-58
2021/09/29 12:21:52;;;;;;;2.15;0.60;;;22.80;55.50;;;;;;5012533;28;20378;-58
2021/09/29 12:24:29;;;;;;;1.05;0.70;;;22.80;55.90;;;;;;5018015;28;20044;-63
2021/09/29 12:26:58;;;;;;;0.93;0.45;;;22.80;56.40;;;;;;5007212;28;20538;-62
2021/09/29 12:29:34;;;;;;;0.80;0.50;;;22.80;56.40;;;;;;5012437;28;20080;-59
2021/09/29 12:35:03;;;;;;;3.50;0.80;;;22.80;55.80;;;;;;5011640;28;20034;-59
2021/09/29 12:37:29;;;;;;;1.30;0.60;;;22.80;55.40;;;;;;5011031;28;20033;-58
2021/09/29 12:39:56;;;;;;;2.20;1.15;;;22.80;55.80;;;;;;5012063;28;20038;-58
2021/09/29 12:42:30;;;;;;;2.67;0.60;;;22.80;55.10;;;;;;5010941;28;20057;-59
2021/09/29 12:44:55;;;;;;;1.70;0.68;;;22.80;55.60;;;;;;5010842;28;20108;-58
2021/09/29 12:47:24;;;;;;;1.45;0.70;;;22.80;55.20;;;;;;5010910;28;20088;-59
2021/09/29 12:49:51;;;;;;;1.50;0.50;;;22.80;55.20;;;;;;5011599;28;20041;-59
2021/09/29 12:52:38;;;;;;;2.13;0.60;;;22.80;54.90;;;;;;5011200;28;20413;-63
2021/09/29 12:55:04;;;;;;;0.93;0.40;;;22.80;55.30;;;;;;5011978;28;20030;-58
2021/09/29 12:57:30;;;;;;;1.85;0.70;;;22.80;55.00;;;;;;5010969;28;20037;-59
2021/09/29 12:59:57;;;;;;;1.45;0.50;;;22.80;54.60;;;;;;5017114;28;20023;-59
2021/09/29 13:02:23;;;;;;;2.40;0.60;;;22.80;54.60;;;;;;5030851;28;20069;-59
2021/09/29 13:04:49;;;;;;;1.65;0.50;;;22.80;54.40;;;;;;5031614;28;20088;-58
2021/09/29 13:07:15;;;;;;;2.13;0.50;;;22.80;54.90;;;;;;5020184;28;20508;-62
2021/09/29 13:09:41;;;;;;;1.23;0.68;;;22.80;55.10;;;;;;5011557;28;20069;-58
2021/09/29 13:12:06;;;;;;;1.90;0.75;;;22.80;55.10;;;;;;5011533;28;20113;-59
2021/09/29 13:14:32;;;;;;;2.17;0.60;;;22.80;55.00;;;;;;5010948;28;20057;-59
2021/09/29 13:16:58;;;;;;;2.13;0.85;;;22.80;54.90;;;;;;5011525;28;20025;-58
2021/09/29 13:19:51;;;;;;;1.13;0.63;;;22.80;54.40;;;;;;5010439;28;20514;-59
2021/09/29 13:22:21;;;;;;;1.33;0.60;;;22.80;54.30;;;;;;5029037;28;20037;-59
2021/09/29 13:24:59;;;;;;;2.33;0.90;;;22.80;54.50;;;;;;5024302;28;20026;-59
2021/09/29 13:38:16;;;;;;;2.53;0.60;;;22.80;53.80;;;;;;4992906;28;20039;-61
2021/09/29 13:40:44;;;;;;;6.35;0.90;;;22.80;53.30;;;;;;5011127;28;20478;-58
2021/09/29 13:43:10;;;;;;;13.00;2.13;;;22.80;53.70;;;;;;5010252;28;20030;-59
2021/09/29 13:45:36;;;;;;;5.47;0.90;;;22.80;54.20;;;;;;5013139;28;20113;-59
2021/09/29 13:48:03;;;;;;;9.55;0.80;;;22.80;54.30;;;;;;5014719;28;20033;-58
2021/09/29 13:50:29;;;;;;;4.88;0.77;;;22.80;54.50;;;;;;5013909;28;20040;-59
2021/09/29 13:52:55;;;;;;;3.30;0.93;;;22.90;54.70;;;;;;5013436;28;20116;-60
2021/09/29 13:55:22;;;;;;;8.90;1.02;;;22.90;54.70;;;;;;5013631;28;20030;-59
2021/09/29 13:57:58;;;;;;;7.70;1.00;;;22.90;54.70;;;;;;5013340;28;20038;-58
2021/09/29 14:32:41;;;;;;;3.08;0.98;;;23.20;55.40;;;;;;5012795;28;20506;-59
2021/09/29 14:35:08;;;;;;;5.15;0.70;;;23.30;55.40;;;;;;5013989;28;20026;-59
2021/09/29 14:37:33;;;;;;;2.97;1.00;;;23.20;55.30;;;;;;5014092;28;20075;-59
2021/09/29 14:39:59;;;;;;;1.52;0.40;;;23.20;55.40;;;;;;5033489;28;20079;-58
2021/09/29 14:42:25;;;;;;;0.95;0.52;;;23.20;56.00;;;;;;5017752;28;20045;-59
2021/09/29 14:44:50;;;;;;;5.65;0.70;;;23.30;55.30;;;;;;5013324;28;20053;-59
2021/09/29 14:47:16;;;;;;;4.40;0.68;;;23.30;55.30;;;;;;5013859;28;20030;-58
2021/09/29 14:49:43;;;;;;;1.55;0.70;;;23.30;55.30;;;;;;5012887;28;20042;-58
2021/09/29 14:52:11;;;;;;;2.20;0.60;;;23.20;55.20;;;;;;5013815;28;20037;-58
2021/09/29 14:54:37;;;;;;;2.95;0.70;;;23.30;55.20;;;;;;5012048;28;20018;-58
2021/09/29 14:57:09;;;;;;;1.27;0.77;;;23.30;55.20;;;;;;5013260;28;20034;-59
2021/09/29 14:59:39;;;;;;;1.77;0.55;;;23.30;55.20;;;;;;5012414;28;20041;-59
2021/09/29 15:02:05;;;;;;;2.35;0.90;;;23.30;55.20;;;;;;5013566;28;20022;-58
2021/09/29 15:04:31;;;;;;;0.90;0.52;;;23.30;55.20;;;;;;5012252;28;20036;-59
2021/09/29 15:06:56;;;;;;;1.45;0.70;;;23.30;55.20;;;;;;5013026;28;20046;-58
2021/09/29 15:09:23;;;;;;;1.58;0.63;;;23.30;55.20;;;;;;5012361;28;20077;-59
2021/09/29 15:11:49;;;;;;;2.83;0.70;;;23.30;55.20;;;;;;5012989;28;20053;-59
2021/09/29 15:14:19;;;;;;;3.10;0.70;;;23.30;55.20;;;;;;5012610;28;20026;-59
2021/09/29 15:16:55;;;;;;;2.78;0.90;;;23.30;55.10;;;;;;5012262;28;20022;-59
2021/09/29 15:22:02;;;;;;;3.45;0.70;;;23.30;55.20;;;;;;5012968;28;20033;-59
2021/09/29 15:48:32;;;;;;;0.70;0.43;;;23.30;55.00;;;;;;5011945;28;20149;-59
2021/09/29 15:56:41;;;;;;;1.17;0.47;;;23.30;54.80;;;;;;4991421;28;20078;-59
2021/09/29 16:06:54;;;;;;;1.95;0.50;;;23.40;54.80;;;;;;4950554;29;20082;-59
2021/09/29 16:17:24;;;;;;;1.77;0.63;;;23.40;54.70;;;;;;4936821;29;20566;-59
2021/09/29 16:37:41;;;;;;;2.25;0.40;;;23.40;54.80;;;;;;4950537;29;20035;-59
2021/09/29 16:40:08;;;;;;;2.60;0.60;;;23.40;54.80;;;;;;4951396;29;20034;-59
2021/09/29 16:42:33;;;;;;;0.70;0.40;;;23.40;54.60;;;;;;4950505;29;20031;-59
2021/09/29 16:45:03;;;;;;;1.67;0.50;;;23.40;54.70;;;;;;4996077;28;20049;-59
2021/09/29 16:47:29;;;;;;;1.65;0.40;;;23.30;54.70;;;;;;5011096;28;20022;-60
2021/09/29 16:49:55;;;;;;;3.05;0.52;;;23.40;54.70;;;;;;5011836;28;20030;-59
2021/09/29 16:54:47;;;;;;;1.50;0.57;;;23.40;54.60;;;;;;5012022;28;20101;-58
2021/09/29 16:57:17;;;;;;;2.40;0.93;;;23.40;54.70;;;;;;5012040;28;20045;-59
2021/09/29 16:59:46;;;;;;;5.50;1.45;;;23.40;54.80;;;;;;5011134;28;20046;-59
2021/09/29 17:02:14;;;;;;;5.03;0.75;;;23.40;54.90;;;;;;5011814;28;20029;-60
2021/09/29 17:04:43;;;;;;;6.78;1.00;;;23.50;55.10;;;;;;5010646;28;20095;-59